createdAt,value
2018-08-09T00:03:37.714Z,99761.55
2018-08-09T00:07:41.331Z,99760.64
2018-08-09T00:11:44.943Z,99756.31
2018-08-09T00:15:48.442Z,99770.58
2018-08-09T00:19:51.940Z,99767.79
2018-08-09T00:23:55.434Z,99764.59
2018-08-09T00:27:58.851Z,99773.46
2018-08-09T00:32:02.366Z,99766.22
2018-08-09T00:36:05.809Z,99768.34
2018-08-09T00:40:09.312Z,99779.05
2018-08-09T00:44:12.867Z,99775.39
2018-08-09T00:48:16.338Z,99772.87
2018-08-09T00:52:19.822Z,99775.77
2018-08-09T00:56:23.267Z,99778.09
2018-08-09T01:00:26.776Z,99772.97
2018-08-09T01:04:30.210Z,99779.63
2018-08-09T01:08:33.662Z,99771.53
2018-08-09T01:12:37.152Z,99765.95
2018-08-09T01:16:40.758Z,99765.18
2018-08-09T01:20:44.252Z,99772.47
2018-08-09T01:24:47.748Z,99770.84
2018-08-09T01:28:51.212Z,99774.41
2018-08-09T01:32:54.826Z,99768.64
2018-08-09T01:36:58.280Z,99770.84
2018-08-09T01:41:01.895Z,99774.50
2018-08-09T01:45:05.366Z,99773.73
2018-08-09T01:49:08.785Z,99770.44
2018-08-09T01:53:12.295Z,99763.02
2018-08-09T01:57:15.799Z,99762.84
2018-08-09T02:01:19.888Z,99767.15
2018-08-09T02:05:23.353Z,99766.47
2018-08-09T02:09:33.384Z,99772.63
2018-08-09T02:13:37.019Z,99764.34
2018-08-09T02:17:40.701Z,99758.05
2018-08-09T02:21:44.182Z,99764.80
2018-08-09T02:25:47.716Z,99771.08
2018-08-09T02:29:51.159Z,99760.38
2018-08-09T02:33:54.710Z,99768.93
2018-08-09T02:37:58.204Z,99762.00
2018-08-09T02:42:01.712Z,99766.95
2018-08-09T02:46:05.193Z,99772.16
2018-08-09T02:50:08.707Z,99768.69
2018-08-09T02:54:12.179Z,99772.82
2018-08-09T02:58:15.630Z,99766.34
2018-08-09T03:02:19.124Z,99768.36
2018-08-09T03:06:22.588Z,99766.89
2018-08-09T03:10:26.044Z,99770.83
2018-08-09T03:14:29.467Z,99767.05
2018-08-09T03:18:32.996Z,99765.67
2018-08-09T03:22:36.543Z,99765.67
2018-08-09T03:26:40.054Z,99774.53
2018-08-09T03:30:43.499Z,99781.19
2018-08-09T03:34:46.978Z,99775.51
2018-08-09T03:38:50.457Z,99777.39
2018-08-09T03:42:53.963Z,99785.28
2018-08-09T03:46:57.477Z,99785.08
2018-08-09T03:51:00.989Z,99790.80
2018-08-09T03:55:04.932Z,99805.30
2018-08-09T03:59:08.450Z,99810.77
2018-08-09T04:03:11.995Z,99805.19
2018-08-09T04:07:15.514Z,99815.58
2018-08-09T04:11:19.015Z,99806.16
2018-08-09T04:15:22.515Z,99819.63
2018-08-09T04:19:26.021Z,99824.89
2018-08-09T04:23:29.600Z,99831.63
2018-08-09T04:27:33.083Z,99834.43
2018-08-09T04:31:36.566Z,99833.09
2018-08-09T04:35:40.034Z,99836.23
2018-08-09T04:39:43.551Z,99826.52
2018-08-09T04:43:47.050Z,99835.08
2018-08-09T04:47:50.592Z,99835.53
2018-08-09T04:51:54.091Z,99842.83
2018-08-09T04:55:57.590Z,99849.80
2018-08-09T05:00:01.085Z,99848.54
2018-08-09T05:04:04.598Z,99858.77
2018-08-09T05:08:08.442Z,99858.58
2018-08-09T05:12:11.976Z,99865.31
2018-08-09T05:16:15.456Z,99860.98
2018-08-09T05:20:19.023Z,99863.36
2018-08-09T05:24:22.452Z,99867.73
2018-08-09T05:28:25.918Z,99862.03
2018-08-09T05:32:29.424Z,99860.89
2018-08-09T05:36:32.899Z,99862.04
2018-08-09T05:40:36.428Z,99852.48
2018-08-09T05:44:39.927Z,99854.64
2018-08-09T05:48:43.394Z,99848.55
2018-08-09T05:52:46.980Z,99848.72
2018-08-09T05:56:50.423Z,99854.28
2018-08-09T06:00:53.884Z,99847.39
2018-08-09T06:04:57.372Z,99855.33
2018-08-09T06:09:00.885Z,99858.64
2018-08-09T06:13:04.376Z,99858.97
2018-08-09T06:17:07.860Z,99859.07
2018-08-09T06:21:11.442Z,99860.10
2018-08-09T06:25:15.060Z,99864.73
2018-08-09T06:29:18.554Z,99868.70
2018-08-09T06:33:23.022Z,99872.66
2018-08-09T06:37:26.502Z,99870.80
2018-08-09T06:41:29.986Z,99872.26
2018-08-09T06:45:33.444Z,99872.00
2018-08-09T06:49:36.898Z,99876.72
2018-08-09T06:53:40.392Z,99869.73
2018-08-09T06:57:43.860Z,99872.82
2018-08-09T07:01:47.306Z,99870.30
2018-08-09T07:05:50.818Z,99872.58
2018-08-09T07:09:54.276Z,99869.95
2018-08-09T07:13:57.734Z,99861.91
2018-08-09T07:18:01.162Z,99867.09
2018-08-09T07:22:04.666Z,99877.88
2018-08-09T07:26:08.405Z,99869.72
2018-08-09T07:30:13.158Z,99877.00
2018-08-09T07:34:16.619Z,99879.65
2018-08-09T07:38:20.093Z,99869.71
2018-08-09T07:42:23.540Z,99871.56
2018-08-09T07:46:27.017Z,99868.02
2018-08-09T07:50:30.493Z,99870.10
2018-08-09T07:54:34.945Z,99863.63
2018-08-09T07:58:38.393Z,99863.16
2018-08-09T08:02:42.294Z,99855.25
2018-08-09T08:06:45.782Z,99860.91
2018-08-09T08:10:49.728Z,99863.48
2018-08-09T08:14:53.247Z,99862.20
2018-08-09T08:18:56.705Z,99869.63
2018-08-09T08:23:00.246Z,99867.56
2018-08-09T08:27:03.741Z,99869.61
2018-08-09T08:31:07.301Z,99865.33
2018-08-09T08:35:11.133Z,99868.48
2018-08-09T08:39:15.054Z,99863.95
2018-08-09T08:43:18.997Z,99859.38
2018-08-09T08:47:23.046Z,99869.89
2018-08-09T08:51:27.693Z,99872.05
2018-08-09T08:55:31.681Z,99863.16
2018-08-09T08:59:35.839Z,99858.36
2018-08-09T09:03:39.658Z,99861.56
2018-08-09T09:07:43.464Z,99851.30
2018-08-09T09:11:47.348Z,99850.55
2018-08-09T09:15:50.895Z,99850.42
2018-08-09T09:19:54.695Z,99839.99
2018-08-09T09:23:58.223Z,99844.02
2018-08-09T09:28:02.061Z,99838.30
2018-08-09T09:32:05.677Z,99834.78
2018-08-09T09:36:10.418Z,99827.30
2018-08-09T09:40:13.938Z,99822.23
2018-08-09T09:44:17.480Z,99821.53
2018-08-09T09:48:21.062Z,99827.42
2018-08-09T09:52:24.939Z,99823.14
2018-08-09T09:56:28.951Z,99820.68
2018-08-09T10:00:37.817Z,99810.57
2018-08-09T10:04:41.404Z,99802.06
2018-08-09T10:08:44.955Z,99795.62
2018-08-09T10:12:48.514Z,99793.51
2018-08-09T10:16:51.994Z,99794.03
2018-08-09T10:20:55.505Z,99788.37
2018-08-09T10:24:59.414Z,99782.95
2018-08-09T10:29:02.911Z,99781.61
2018-08-09T10:33:06.632Z,99771.84
2018-08-09T10:37:10.184Z,99767.67
2018-08-09T10:41:13.734Z,99766.27
2018-08-09T10:45:17.343Z,99760.68
2018-08-09T10:49:20.834Z,99759.46
2018-08-09T10:53:24.371Z,99744.27
2018-08-09T10:57:28.351Z,99751.44
2018-08-09T11:01:32.163Z,99739.71
2018-08-09T11:05:35.739Z,99733.09
2018-08-09T11:09:39.414Z,99743.82
2018-08-09T11:13:44.786Z,99731.70
2018-08-09T11:17:48.285Z,99727.40
2018-08-09T11:21:51.789Z,99717.58
2018-08-09T11:25:55.472Z,99713.11
2018-08-09T11:29:59.043Z,99713.08
2018-08-09T11:34:02.867Z,99717.14
2018-08-09T11:38:06.408Z,99711.89
2018-08-09T11:42:09.925Z,99705.16
2018-08-09T11:46:13.466Z,99690.57
2018-08-09T11:50:17.259Z,99690.88
2018-08-09T11:54:20.799Z,99695.23
2018-08-09T11:58:24.417Z,99689.41
2018-08-09T12:02:28.200Z,99682.48
2018-08-09T12:06:31.780Z,99671.16
2018-08-09T12:10:35.350Z,99680.28
2018-08-09T12:14:38.910Z,99675.38
2018-08-09T12:18:42.568Z,99670.70
2018-08-09T12:22:46.071Z,99659.31
2018-08-09T12:26:49.654Z,99660.16
2018-08-09T12:30:53.594Z,99657.42
2018-08-09T12:34:57.230Z,99657.31
2018-08-09T12:39:00.827Z,99644.64
2018-08-09T12:43:04.521Z,99635.27
2018-08-09T12:47:08.387Z,99632.38
2018-08-09T12:51:11.975Z,99631.84
2018-08-09T12:55:15.711Z,99620.37
2018-08-09T12:59:19.553Z,99617.24
2018-08-09T13:03:23.099Z,99617.77
2018-08-09T13:16:17.678Z,99617.30
2018-08-09T13:20:21.802Z,99606.02
2018-08-09T13:24:25.234Z,99596.75
2018-08-09T13:28:28.623Z,99592.36
2018-08-09T13:32:32.076Z,99600.51
2018-08-09T13:36:35.495Z,99589.91
2018-08-09T13:40:38.884Z,99583.22
2018-08-09T13:44:42.275Z,99585.39
2018-08-09T13:48:45.695Z,99570.27
2018-08-09T13:52:49.130Z,99565.80
2018-08-09T13:56:52.546Z,99563.37
2018-08-09T14:00:56.001Z,99564.56
2018-08-09T14:04:59.451Z,99562.08
2018-08-09T14:09:02.987Z,99553.31
2018-08-09T14:13:06.982Z,99543.88
2018-08-09T14:17:10.997Z,99549.67
2018-08-09T14:21:16.074Z,99538.56
2018-08-09T14:25:21.145Z,99549.19
2018-08-09T14:29:26.373Z,99543.28
2018-08-09T14:33:30.775Z,99537.92
2018-08-09T14:37:36.259Z,99548.11
2018-08-09T14:41:40.511Z,99549.97
2018-08-09T14:45:44.745Z,99549.61
2018-08-09T14:49:48.931Z,99542.20
2018-08-09T14:53:53.253Z,99534.61
2018-08-09T14:57:59.402Z,99537.99
2018-08-09T15:02:03.747Z,99540.00
2018-08-09T15:06:08.944Z,99534.92
2018-08-09T15:10:13.280Z,99542.97
2018-08-09T15:18:31.031Z,99525.47
2018-08-09T15:22:34.723Z,99542.68
2018-08-09T15:26:38.618Z,99544.34
2018-08-09T15:30:42.601Z,99523.30
2018-08-09T15:34:46.379Z,99541.01
2018-08-09T15:38:50.013Z,99540.80
2018-08-09T15:42:53.849Z,99535.14
2018-08-09T15:46:57.455Z,99527.19
2018-08-09T15:51:02.122Z,99531.44
2018-08-09T15:55:06.710Z,99536.05
2018-08-09T15:59:10.272Z,99533.47
2018-08-09T16:03:13.728Z,99548.66
2018-08-09T16:07:17.275Z,99546.59
2018-08-09T16:11:20.826Z,99551.95
2018-08-09T16:15:24.489Z,99542.20
2018-08-09T16:19:28.057Z,99544.34
2018-08-09T16:23:31.583Z,99538.33
2018-08-09T16:27:35.272Z,99535.53
2018-08-09T16:31:38.857Z,99542.17
2018-08-09T16:35:42.502Z,99544.54
2018-08-09T16:39:46.075Z,99540.44
2018-08-09T16:43:49.580Z,99529.81
2018-08-09T16:47:54.087Z,99537.02
2018-08-09T16:51:57.706Z,99530.14
2018-08-09T16:56:01.379Z,99541.80
2018-08-09T17:00:07.499Z,99553.53
2018-08-09T17:04:11.139Z,99545.81
2018-08-09T17:08:14.786Z,99554.59
2018-08-09T17:12:18.490Z,99548.38
2018-08-09T17:16:22.201Z,99550.03
2018-08-09T17:20:28.117Z,99557.80
2018-08-09T17:24:31.692Z,99546.22
2018-08-09T17:28:35.385Z,99547.59
2018-08-09T17:32:39.103Z,99541.58
2018-08-09T17:36:42.613Z,99547.96
2018-08-09T17:40:46.908Z,99558.27
2018-08-09T17:44:50.378Z,99552.47
2018-08-09T17:48:54.202Z,99558.50
2018-08-09T17:52:59.851Z,99559.57
2018-08-09T17:57:03.381Z,99567.98
2018-08-09T18:01:06.926Z,99568.41
2018-08-09T18:05:10.825Z,99572.68
2018-08-09T18:09:14.304Z,99570.83
2018-08-09T18:13:17.821Z,99565.95
2018-08-09T18:17:21.432Z,99573.13
2018-08-09T18:21:25.004Z,99579.78
2018-08-09T18:25:29.620Z,99578.48
2018-08-09T18:29:33.197Z,99583.09
2018-08-09T18:33:36.968Z,99587.72
2018-08-09T18:37:40.586Z,99603.41
2018-08-09T18:41:44.280Z,99603.95
2018-08-09T18:45:47.897Z,99611.20
2018-08-09T18:49:51.915Z,99608.16
2018-08-09T18:53:55.676Z,99606.75
2018-08-09T18:57:59.470Z,99610.52
2018-08-09T19:02:03.234Z,99623.33
2018-08-09T19:06:06.912Z,99625.17
2018-08-09T19:10:15.386Z,99639.22
2018-08-09T19:14:19.068Z,99639.39
2018-08-09T19:18:22.852Z,99644.85
2018-08-09T19:22:27.216Z,99640.17
2018-08-09T19:26:31.065Z,99641.70
2018-08-09T19:30:34.653Z,99640.52
2018-08-09T19:34:38.350Z,99644.89
2018-08-09T19:38:42.093Z,99649.23
2018-08-09T19:42:45.557Z,99645.53
2018-08-09T19:46:49.095Z,99640.51
2018-08-09T19:50:52.609Z,99636.21
2018-08-09T19:54:56.179Z,99633.27
2018-08-09T19:58:59.639Z,99626.38
2018-08-09T20:03:03.118Z,99632.70
2018-08-09T20:07:07.009Z,99641.23
2018-08-09T20:11:10.517Z,99646.31
2018-08-09T20:15:16.473Z,99649.78
2018-08-09T20:19:19.920Z,99649.05
2018-08-09T20:23:23.630Z,99647.95
2018-08-09T20:27:27.319Z,99641.91
2018-08-09T20:31:30.860Z,99650.93
2018-08-09T20:35:34.301Z,99647.73
2018-08-09T20:39:37.760Z,99644.28
2018-08-09T20:47:54.162Z,99648.22
2018-08-09T20:51:57.656Z,99658.97
2018-08-09T20:56:01.445Z,99663.53
2018-08-09T21:00:08.407Z,99662.69
2018-08-09T21:04:11.894Z,99666.15
2018-08-09T21:08:15.334Z,99670.16
2018-08-09T21:12:19.806Z,99676.95
2018-08-09T21:16:23.451Z,99682.52
2018-08-09T21:20:26.947Z,99686.08
2018-08-09T21:24:30.435Z,99688.18
2018-08-09T21:28:34.386Z,99692.13
2018-08-09T21:32:37.835Z,99691.01
2018-08-09T21:36:42.247Z,99698.14
2018-08-09T21:40:45.771Z,99700.36
2018-08-09T21:44:49.638Z,99699.61
2018-08-09T21:48:53.133Z,99702.16
2018-08-09T21:52:56.969Z,99702.73
2018-08-09T21:57:00.613Z,99696.17
2018-08-09T22:01:05.813Z,99694.30
2018-08-09T22:05:14.403Z,99696.00
2018-08-09T22:09:23.183Z,99694.87
2018-08-09T22:13:31.838Z,99695.09
2018-08-09T22:17:40.315Z,99695.47
2018-08-09T22:21:48.931Z,99692.34
2018-08-09T22:25:52.348Z,99702.56
2018-08-09T22:29:55.910Z,99710.30
2018-08-09T22:33:59.429Z,99717.58
2018-08-09T22:38:02.897Z,99713.00
2018-08-09T22:42:06.482Z,99720.27
2018-08-09T22:46:10.099Z,99725.80
2018-08-09T22:50:13.686Z,99723.53
2018-08-09T22:54:17.386Z,99713.75
2018-08-09T22:58:20.981Z,99718.25
2018-08-09T23:02:24.512Z,99722.92
2018-08-09T23:06:30.467Z,99725.10
2018-08-09T23:10:34.062Z,99722.25
2018-08-09T23:14:37.468Z,99730.09
2018-08-09T23:18:40.899Z,99734.48
2018-08-09T23:22:44.388Z,99736.09
2018-08-09T23:26:47.840Z,99736.56
2018-08-09T23:30:51.333Z,99738.02
2018-08-09T23:34:54.764Z,99751.42
2018-08-09T23:38:58.262Z,99751.03
2018-08-09T23:43:01.726Z,99745.25
2018-08-09T23:47:05.158Z,99752.98
2018-08-09T23:51:08.630Z,99769.73
2018-08-09T23:55:15.014Z,99785.13
2018-08-09T23:59:18.475Z,99783.48
